createdAt,value
2017-12-05T00:00:04.331Z,981.89
2017-12-05T00:01:14.319Z,981.84
2017-12-05T00:02:24.033Z,981.86
2017-12-05T00:03:33.748Z,981.9
2017-12-05T00:04:43.734Z,981.82
2017-12-05T00:05:53.709Z,981.74
2017-12-05T00:07:03.688Z,981.74
2017-12-05T00:08:13.409Z,981.76
2017-12-05T00:09:23.129Z,981.67
2017-12-05T00:10:32.842Z,981.67
2017-12-05T00:11:42.824Z,981.67
2017-12-05T00:12:52.821Z,981.71
2017-12-05T00:14:02.805Z,981.7
2017-12-05T00:15:12.788Z,981.66
2017-12-05T00:16:22.777Z,981.66
2017-12-05T00:17:32.233Z,981.63
2017-12-05T00:18:42.218Z,981.61
2017-12-05T00:19:52.198Z,981.62
2017-12-05T00:21:01.912Z,981.56
2017-12-05T00:22:11.631Z,981.55
2017-12-05T00:23:21.613Z,981.5
2017-12-05T00:24:31.596Z,981.45
2017-12-05T00:25:41.321Z,981.39
2017-12-05T00:26:51.309Z,981.43
2017-12-05T00:28:01.292Z,981.48
2017-12-05T00:29:10.741Z,981.41
2017-12-05T00:30:20.720Z,981.36
2017-12-05T00:31:30.707Z,981.34
2017-12-05T00:32:40.699Z,981.3
2017-12-05T00:33:50.684Z,981.28
2017-12-05T00:35:00.401Z,981.28
2017-12-05T00:36:10.116Z,981.28
2017-12-05T00:37:20.099Z,981.27
2017-12-05T00:38:30.079Z,981.31
2017-12-05T00:39:40.062Z,981.28
2017-12-05T00:40:49.511Z,981.26
2017-12-05T00:41:58.967Z,981.24
2017-12-05T00:43:08.948Z,981.23
2017-12-05T00:44:18.927Z,981.22
2017-12-05T00:45:28.908Z,981.22
2017-12-05T00:46:38.891Z,981.11
2017-12-05T00:47:48.933Z,981.14
2017-12-05T00:48:58.921Z,981.06
2017-12-05T00:50:08.909Z,981.05
2017-12-05T00:51:18.890Z,981.01
2017-12-05T00:52:28.610Z,980.97
2017-12-05T00:53:38.594Z,981
2017-12-05T00:54:48.325Z,980.94
2017-12-05T00:55:58.327Z,981
2017-12-05T00:57:07.767Z,981.02
2017-12-05T00:58:17.755Z,980.97
2017-12-05T00:59:27.738Z,980.91
2017-12-05T01:00:37.463Z,980.9
2017-12-05T01:01:47.445Z,980.88
2017-12-05T01:02:57.435Z,980.86
2017-12-05T01:04:07.419Z,980.86
2017-12-05T01:05:17.396Z,980.8
2017-12-05T01:06:27.383Z,980.8
2017-12-05T01:07:37.099Z,980.83
2017-12-05T01:08:47.077Z,980.72
2017-12-05T01:09:57.056Z,980.75
2017-12-05T01:11:07.037Z,980.69
2017-12-05T01:12:17.015Z,980.67
2017-12-05T01:13:27.006Z,980.72
2017-12-05T01:14:36.987Z,980.71
2017-12-05T01:15:46.975Z,980.69
2017-12-05T01:16:56.958Z,980.68
2017-12-05T01:18:06.147Z,980.63
2017-12-05T01:19:16.137Z,980.57
2017-12-05T01:20:26.127Z,980.65
2017-12-05T01:21:36.110Z,980.66
2017-12-05T01:22:46.100Z,980.63
2017-12-05T01:23:56.149Z,980.6
2017-12-05T01:25:06.149Z,980.57
2017-12-05T01:26:15.879Z,980.52
2017-12-05T01:27:25.602Z,980.55
2017-12-05T01:28:35.619Z,980.6
2017-12-05T01:29:45.068Z,980.5
2017-12-05T01:30:54.781Z,980.48
2017-12-05T01:32:04.766Z,980.49
2017-12-05T01:33:14.483Z,980.48
2017-12-05T01:34:24.481Z,980.47
2017-12-05T01:35:33.935Z,980.55
2017-12-05T01:36:43.919Z,980.59
2017-12-05T01:37:53.903Z,980.58
2017-12-05T01:39:03.615Z,980.64
2017-12-05T01:40:13.604Z,980.59
2017-12-05T01:41:23.617Z,980.52
2017-12-05T01:42:33.602Z,980.55
2017-12-05T01:43:43.582Z,980.43
2017-12-05T01:44:53.032Z,980.45
2017-12-05T01:46:03.012Z,980.43
2017-12-05T01:47:12.995Z,980.38
2017-12-05T01:48:22.976Z,980.42
2017-12-05T01:49:33.018Z,980.28
2017-12-05T01:50:42.996Z,980.3
2017-12-05T01:51:52.985Z,980.29
2017-12-05T01:53:02.965Z,980.25
2017-12-05T01:54:12.684Z,980.27
2017-12-05T01:55:22.405Z,980.35
2017-12-05T01:56:32.384Z,980.29
2017-12-05T01:57:42.097Z,980.2
2017-12-05T01:58:52.086Z,980.2
2017-12-05T02:00:02.076Z,980.25
2017-12-05T02:01:12.061Z,980.21
2017-12-05T02:02:22.052Z,980.27
2017-12-05T02:03:31.513Z,980.18
2017-12-05T02:04:41.541Z,980.23
2017-12-05T02:05:51.528Z,980.27
2017-12-05T02:07:01.511Z,980.29
2017-12-05T02:08:11.231Z,980.3
2017-12-05T02:09:21.214Z,980.18
2017-12-05T02:10:31.248Z,980.09
2017-12-05T02:11:40.964Z,980.14
2017-12-05T02:12:50.948Z,980.07
2017-12-05T02:14:00.931Z,980.07
2017-12-05T02:15:10.652Z,980.05
2017-12-05T02:16:20.642Z,980.04
2017-12-05T02:17:30.360Z,980.05
2017-12-05T02:18:40.350Z,980.04
2017-12-05T02:19:50.334Z,980.01
2017-12-05T02:21:00.376Z,979.94
2017-12-05T02:22:10.362Z,979.9
2017-12-05T02:23:20.354Z,979.9
2017-12-05T02:24:30.337Z,979.8
2017-12-05T02:25:40.058Z,979.8
2017-12-05T02:26:50.037Z,979.76
2017-12-05T02:27:59.487Z,979.77
2017-12-05T02:29:09.474Z,979.76
2017-12-05T02:30:19.465Z,979.72
2017-12-05T02:31:29.462Z,979.74
2017-12-05T02:32:39.185Z,979.77
2017-12-05T02:33:49.180Z,979.77
2017-12-05T02:34:59.183Z,979.68
2017-12-05T02:36:09.168Z,979.71
2017-12-05T02:37:19.163Z,979.68
2017-12-05T02:38:28.882Z,979.68
2017-12-05T02:39:38.876Z,979.69
2017-12-05T02:40:48.863Z,979.6
2017-12-05T02:41:58.842Z,979.61
2017-12-05T02:43:08.602Z,979.62
2017-12-05T02:44:18.585Z,979.55
2017-12-05T02:45:28.579Z,979.57
2017-12-05T02:46:38.560Z,979.55
2017-12-05T02:47:48.279Z,979.48
2017-12-05T02:48:57.992Z,979.43
2017-12-05T02:50:07.978Z,979.4
2017-12-05T02:51:17.975Z,979.47
2017-12-05T02:52:27.973Z,979.4
2017-12-05T02:53:37.692Z,979.38
2017-12-05T02:54:47.676Z,979.37
2017-12-05T02:55:57.398Z,979.35
2017-12-05T02:57:07.393Z,979.24
2017-12-05T02:58:17.377Z,979.19
2017-12-05T02:59:27.356Z,979.22
2017-12-05T03:00:37.340Z,979.19
2017-12-05T03:01:47.317Z,979.15
2017-12-05T03:02:57.301Z,979.04
2017-12-05T03:04:07.068Z,979.01
2017-12-05T03:05:17.049Z,979
2017-12-05T03:06:27.030Z,979
2017-12-05T03:07:37.044Z,979.01
2017-12-05T03:08:47.028Z,979.07
2017-12-05T03:09:59.009Z,979
2017-12-05T03:11:08.194Z,979.05
2017-12-05T03:12:18.172Z,979.04
2017-12-05T03:13:28.152Z,978.98
2017-12-05T03:14:38.143Z,978.91
2017-12-05T03:15:48.123Z,978.82
2017-12-05T03:16:58.113Z,978.78
2017-12-05T03:18:07.831Z,978.8
2017-12-05T03:19:17.549Z,978.74
2017-12-05T03:20:27.537Z,978.77
2017-12-05T03:21:37.514Z,978.73
2017-12-05T03:22:47.540Z,978.68
2017-12-05T03:23:57.517Z,978.71
2017-12-05T03:25:07.495Z,978.66
2017-12-05T03:26:17.474Z,978.65
2017-12-05T03:27:27.459Z,978.64
2017-12-05T03:28:37.173Z,978.63
2017-12-05T03:29:46.888Z,978.67
2017-12-05T03:30:56.872Z,978.64
2017-12-05T03:32:06.889Z,978.57
2017-12-05T03:33:16.872Z,978.59
2017-12-05T03:34:26.620Z,978.57
2017-12-05T03:35:36.607Z,978.59
2017-12-05T03:36:46.059Z,978.55
2017-12-05T03:37:56.044Z,978.42
2017-12-05T03:39:06.030Z,978.47
2017-12-05T03:40:15.485Z,978.41
2017-12-05T03:41:25.479Z,978.32
2017-12-05T03:42:35.471Z,978.33
2017-12-05T03:43:44.918Z,978.39
2017-12-05T03:44:54.903Z,978.44
2017-12-05T03:46:04.882Z,978.4
2017-12-05T03:47:14.601Z,978.45
2017-12-05T03:48:24.582Z,978.41
2017-12-05T03:49:34.569Z,978.42
2017-12-05T03:50:44.548Z,978.44
2017-12-05T03:51:54.262Z,978.43
2017-12-05T03:53:04.254Z,978.46
2017-12-05T03:54:14.285Z,978.4
2017-12-05T03:55:23.743Z,978.32
2017-12-05T03:56:33.724Z,978.34
2017-12-05T03:57:43.713Z,978.29
2017-12-05T03:58:53.430Z,978.25
2017-12-05T04:00:03.410Z,978.22
2017-12-05T04:04:24.424Z,978.2
2017-12-05T04:05:34.610Z,978.15
2017-12-05T04:06:44.354Z,978.15
2017-12-05T04:07:54.332Z,978.12
2017-12-05T04:09:04.318Z,978.07
2017-12-05T04:10:14.306Z,978.04
2017-12-05T04:11:24.022Z,977.93
2017-12-05T04:12:33.737Z,977.86
2017-12-05T04:13:43.719Z,977.89
2017-12-05T04:14:53.437Z,977.8
2017-12-05T04:16:03.154Z,977.7
2017-12-05T04:17:13.132Z,977.64
2017-12-05T04:18:23.116Z,977.71
2017-12-05T04:19:32.830Z,977.66
2017-12-05T04:20:42.546Z,977.68
2017-12-05T04:21:52.530Z,977.65
2017-12-05T04:23:02.508Z,977.67
2017-12-05T04:24:12.500Z,977.59
2017-12-05T04:25:22.218Z,977.6
2017-12-05T04:26:32.204Z,977.61
2017-12-05T04:27:41.651Z,977.6
2017-12-05T04:28:51.634Z,977.54
2017-12-05T04:30:01.086Z,977.56
2017-12-05T04:31:10.536Z,977.56
2017-12-05T04:32:20.513Z,977.52
2017-12-05T04:33:30.493Z,977.58
2017-12-05T04:34:40.206Z,977.55
2017-12-05T04:35:50.190Z,977.53
2017-12-05T04:37:00.185Z,977.57
2017-12-05T04:38:10.168Z,977.51
2017-12-05T04:39:20.155Z,977.55
2017-12-05T04:40:30.143Z,977.53
2017-12-05T04:41:40.128Z,977.44
2017-12-05T04:42:49.849Z,977.51
2017-12-05T04:43:59.828Z,977.41
2017-12-05T04:45:09.544Z,977.5
2017-12-05T04:46:19.522Z,977.55
2017-12-05T04:47:29.507Z,977.45
2017-12-05T04:48:39.483Z,977.44
2017-12-05T04:49:49.477Z,977.45
2017-12-05T04:50:59.476Z,977.43
2017-12-05T04:52:09.200Z,977.5
2017-12-05T04:53:19.183Z,977.4
2017-12-05T04:54:29.166Z,977.31
2017-12-05T04:55:38.878Z,977.42
2017-12-05T04:56:48.860Z,977.42
2017-12-05T04:57:58.843Z,977.42
2017-12-05T04:59:08.568Z,977.4
2017-12-05T05:00:18.553Z,977.42
2017-12-05T05:01:28.532Z,977.4
2017-12-05T05:02:38.519Z,977.38
2017-12-05T05:03:48.233Z,977.41
2017-12-05T05:04:58.211Z,977.31
2017-12-05T05:06:07.399Z,977.33
2017-12-05T05:07:17.128Z,977.42
2017-12-05T05:08:27.107Z,977.39
2017-12-05T05:09:37.094Z,977.34
2017-12-05T05:10:46.809Z,977.34
2017-12-05T05:11:56.796Z,977.21
2017-12-05T05:13:06.871Z,977.21
2017-12-05T05:14:16.594Z,977.3
2017-12-05T05:15:26.573Z,977.23
2017-12-05T05:16:36.595Z,977.22
2017-12-05T05:17:46.584Z,977.22
2017-12-05T05:18:56.613Z,977.15
2017-12-05T05:20:06.330Z,977.19
2017-12-05T05:21:16.310Z,977.27
2017-12-05T05:22:26.026Z,977.14
2017-12-05T05:23:36.002Z,977.16
2017-12-05T05:24:45.728Z,977.1
2017-12-05T05:25:55.707Z,977.08
2017-12-05T05:27:05.689Z,977.01
2017-12-05T05:28:15.670Z,977.15
2017-12-05T05:29:25.652Z,977.02
2017-12-05T05:30:35.644Z,977.03
2017-12-05T05:31:45.363Z,977.06
2017-12-05T05:32:55.339Z,977.05
2017-12-05T05:34:05.321Z,977.07
2017-12-05T05:35:15.299Z,977.05
2017-12-05T05:36:24.488Z,977.07
2017-12-05T05:37:34.203Z,977.06
2017-12-05T05:38:43.915Z,976.99
2017-12-05T05:39:53.903Z,976.95
2017-12-05T05:41:03.620Z,977
2017-12-05T05:42:13.610Z,976.96
2017-12-05T05:43:23.323Z,977.04
2017-12-05T05:44:33.303Z,976.96
2017-12-05T05:45:43.280Z,977.03
2017-12-05T05:46:52.993Z,977.06
2017-12-05T05:48:02.971Z,976.9
2017-12-05T05:49:12.688Z,976.91
2017-12-05T05:50:22.668Z,977.11
2017-12-05T05:51:32.656Z,977.04
2017-12-05T05:52:42.635Z,976.96
2017-12-05T05:53:52.612Z,977.01
2017-12-05T05:55:02.332Z,977.06
2017-12-05T05:56:11.785Z,977.02
2017-12-05T05:57:21.761Z,977
2017-12-05T05:58:31.745Z,977.04
2017-12-05T05:59:41.512Z,976.97
2017-12-05T06:00:51.489Z,976.83
2017-12-05T06:02:01.207Z,976.86
2017-12-05T06:03:10.653Z,976.94
2017-12-05T06:04:20.375Z,976.85
2017-12-05T06:05:32.360Z,976.8
2017-12-05T06:06:42.341Z,976.84
2017-12-05T06:07:52.057Z,976.72
2017-12-05T06:09:01.782Z,976.76
2017-12-05T06:10:11.506Z,976.79
2017-12-05T06:11:21.485Z,976.81
2017-12-05T06:12:31.248Z,976.77
2017-12-05T06:13:40.696Z,976.64
2017-12-05T06:14:50.718Z,976.63
2017-12-05T06:16:00.707Z,976.73
2017-12-05T06:17:10.732Z,976.71
2017-12-05T06:18:20.716Z,976.64
2017-12-05T06:19:30.436Z,976.63
2017-12-05T06:20:40.174Z,976.7
2017-12-05T06:21:50.158Z,976.67
2017-12-05T06:23:00.135Z,976.67
2017-12-05T06:24:09.852Z,976.74
2017-12-05T06:25:19.832Z,976.73
2017-12-05T06:26:29.814Z,976.7
2017-12-05T06:27:39.794Z,976.68
2017-12-05T06:28:49.779Z,976.66
2017-12-05T06:29:59.756Z,976.81
2017-12-05T06:31:09.468Z,976.84
2017-12-05T06:32:18.915Z,976.71
2017-12-05T06:33:28.900Z,976.63
2017-12-05T06:34:38.887Z,976.72
2017-12-05T06:35:48.938Z,976.76
2017-12-05T06:36:58.917Z,976.69
2017-12-05T06:38:08.905Z,976.7
2017-12-05T06:39:18.913Z,976.63
2017-12-05T06:40:28.889Z,976.63
2017-12-05T06:41:38.884Z,976.69
2017-12-05T06:42:48.607Z,976.68
2017-12-05T06:43:58.597Z,976.68
2017-12-05T06:45:08.309Z,976.66
2017-12-05T06:46:18.025Z,976.7
2017-12-05T06:47:27.738Z,976.58
2017-12-05T06:48:37.464Z,976.56
2017-12-05T06:49:47.442Z,976.68
2017-12-05T06:50:57.416Z,976.76
2017-12-05T06:52:07.393Z,976.67
2017-12-05T06:53:17.107Z,976.8
2017-12-05T06:54:27.093Z,976.88
2017-12-05T06:55:37.068Z,976.67
2017-12-05T06:56:46.779Z,976.65
2017-12-05T06:57:56.225Z,976.69
2017-12-05T06:59:05.935Z,976.64
2017-12-05T07:00:15.654Z,976.52
2017-12-05T07:01:25.636Z,976.47
2017-12-05T07:02:35.620Z,976.49
2017-12-05T07:03:45.605Z,976.49
2017-12-05T07:04:55.317Z,976.51
2017-12-05T07:06:05.355Z,976.59
2017-12-05T07:07:15.341Z,976.53
2017-12-05T07:08:25.052Z,976.48
2017-12-05T07:09:34.764Z,976.44
2017-12-05T07:10:44.742Z,976.34
2017-12-05T07:11:54.454Z,976.39
2017-12-05T07:13:03.900Z,976.39
2017-12-05T07:14:13.875Z,976.34
2017-12-05T07:15:23.850Z,976.37
2017-12-05T07:16:33.577Z,976.38
2017-12-05T07:17:43.564Z,976.37
2017-12-05T07:18:53.275Z,976.33
2017-12-05T07:20:02.990Z,976.27
2017-12-05T07:21:12.972Z,976.24
2017-12-05T07:22:22.954Z,976.26
2017-12-05T07:23:32.933Z,976.24
2017-12-05T07:24:42.641Z,976.13
2017-12-05T07:25:52.622Z,976.11
2017-12-05T07:27:02.601Z,976.14
2017-12-05T07:28:12.316Z,976.18
2017-12-05T07:29:22.300Z,976.23
2017-12-05T07:30:32.277Z,976.22
2017-12-05T07:31:41.987Z,976.22
2017-12-05T07:32:51.751Z,976.27
2017-12-05T07:34:01.736Z,976.24
2017-12-05T07:35:11.710Z,976.22
2017-12-05T07:36:21.692Z,976.23
2017-12-05T07:37:31.670Z,976.2
2017-12-05T07:38:41.649Z,976.18
2017-12-05T07:39:51.377Z,976.09
2017-12-05T07:41:01.387Z,976.08
2017-12-05T07:42:11.362Z,976.12
2017-12-05T07:43:21.392Z,976.05
2017-12-05T07:44:31.370Z,976.05
2017-12-05T07:45:41.367Z,976
2017-12-05T07:46:51.348Z,975.95
2017-12-05T07:48:01.325Z,975.94
2017-12-05T07:49:11.301Z,975.95
2017-12-05T07:50:21.014Z,975.88
2017-12-05T07:51:30.726Z,975.87
2017-12-05T07:52:40.437Z,975.81
2017-12-05T07:53:50.151Z,975.8
2017-12-05T07:55:00.127Z,975.83
2017-12-05T07:56:09.839Z,975.87
2017-12-05T07:57:19.815Z,975.86
2017-12-05T07:58:29.827Z,975.82
2017-12-05T07:59:39.548Z,975.79
2017-12-05T08:00:49.266Z,975.77
2017-12-05T08:01:59.306Z,975.75
2017-12-05T08:03:09.285Z,975.72
2017-12-05T08:04:19.333Z,975.71
2017-12-05T08:05:29.310Z,975.72
2017-12-05T08:06:39.023Z,975.63
2017-12-05T08:07:48.999Z,975.65
2017-12-05T08:08:58.976Z,975.65
2017-12-05T08:10:08.421Z,975.59
2017-12-05T08:11:18.136Z,975.55
2017-12-05T08:12:28.117Z,975.56
2017-12-05T08:13:38.097Z,975.54
2017-12-05T08:14:47.810Z,975.53
2017-12-05T08:15:57.788Z,975.57
2017-12-05T08:17:07.502Z,975.52
2017-12-05T08:18:17.548Z,975.48
2017-12-05T08:19:27.546Z,975.53
2017-12-05T08:20:37.527Z,975.57
2017-12-05T08:21:47.508Z,975.51
2017-12-05T08:22:57.484Z,975.52
2017-12-05T08:24:07.463Z,975.53
2017-12-05T08:25:17.437Z,975.49
2017-12-05T08:26:27.416Z,975.48
2017-12-05T08:27:37.392Z,975.44
2017-12-05T08:28:47.107Z,975.37
2017-12-05T08:29:57.090Z,975.4
2017-12-05T08:31:07.072Z,975.4
2017-12-05T08:32:16.787Z,975.35
2017-12-05T08:33:26.776Z,975.35
2017-12-05T08:34:36.756Z,975.3
2017-12-05T08:35:46.739Z,975.34
2017-12-05T08:36:56.721Z,975.36
2017-12-05T08:38:06.166Z,975.39
2017-12-05T08:39:16.154Z,975.35
2017-12-05T08:40:26.166Z,975.36
2017-12-05T08:41:35.878Z,975.38
2017-12-05T08:42:45.938Z,975.34
2017-12-05T08:43:55.919Z,975.34
2017-12-05T08:45:05.903Z,975.28
2017-12-05T08:46:15.897Z,975.31
2017-12-05T08:47:25.872Z,975.24
2017-12-05T08:48:35.857Z,975.25
2017-12-05T08:49:45.570Z,975.23
2017-12-05T08:50:55.613Z,975.23
2017-12-05T08:52:05.591Z,975.27
2017-12-05T08:53:14.772Z,975.32
2017-12-05T08:54:24.750Z,975.25
2017-12-05T08:55:34.729Z,975.25
2017-12-05T08:56:44.709Z,975.22
2017-12-05T08:57:54.161Z,975.19
2017-12-05T08:59:04.142Z,975.18
2017-12-05T09:00:14.118Z,975.18
2017-12-05T09:01:24.147Z,975.17
2017-12-05T09:02:34.127Z,975.19
2017-12-05T09:03:44.105Z,975.16
2017-12-05T09:04:54.084Z,975.14
2017-12-05T09:06:03.530Z,975.11
2017-12-05T09:07:13.239Z,975.13
2017-12-05T09:08:23.219Z,975.15
2017-12-05T09:09:33.204Z,975.05
2017-12-05T09:10:42.653Z,975.01
2017-12-05T09:11:52.642Z,974.95
2017-12-05T09:13:02.624Z,974.96
2017-12-05T09:14:12.342Z,974.91
2017-12-05T09:15:22.335Z,974.84
2017-12-05T09:16:32.312Z,974.85
2017-12-05T09:17:42.292Z,974.82
2017-12-05T09:18:54.069Z,974.92
2017-12-05T09:20:04.058Z,974.95
2017-12-05T09:21:13.502Z,974.92
2017-12-05T09:22:23.480Z,974.89
2017-12-05T09:23:33.461Z,974.93
2017-12-05T09:24:43.172Z,974.91
2017-12-05T09:25:52.363Z,974.95
2017-12-05T09:27:01.817Z,974.97
2017-12-05T09:28:11.796Z,974.84
2017-12-05T09:29:21.778Z,974.83
2017-12-05T09:30:31.492Z,974.78
2017-12-05T09:31:41.471Z,974.77
2017-12-05T09:32:51.453Z,974.72
2017-12-05T09:34:00.693Z,974.71
2017-12-05T09:35:10.442Z,974.75
2017-12-05T09:36:20.159Z,974.68
2017-12-05T09:37:30.145Z,974.67
2017-12-05T09:38:39.860Z,974.61
2017-12-05T09:39:49.306Z,974.62
2017-12-05T09:40:59.291Z,974.66
2017-12-05T09:42:09.281Z,974.69
2017-12-05T09:43:19.261Z,974.61
2017-12-05T09:44:29.240Z,974.59
2017-12-05T09:45:39.222Z,974.51
2017-12-05T09:46:49.212Z,974.48
2017-12-05T09:47:58.658Z,974.49
2017-12-05T09:49:08.660Z,974.52
2017-12-05T09:50:18.376Z,974.58
2017-12-05T09:51:27.828Z,974.63
2017-12-05T09:52:37.814Z,974.6
2017-12-05T09:53:47.528Z,974.51
2017-12-05T09:54:57.508Z,974.53
2017-12-05T09:56:07.487Z,974.54
2017-12-05T09:57:16.940Z,974.54
2017-12-05T09:58:28.926Z,974.59
2017-12-05T09:59:38.975Z,974.63
2017-12-05T10:00:49.012Z,974.62
2017-12-05T10:01:59.006Z,974.68
2017-12-05T10:03:08.199Z,974.67
2017-12-05T10:04:18.182Z,974.62
2017-12-05T10:05:28.163Z,974.61
2017-12-05T10:06:38.139Z,974.58
2017-12-05T10:07:47.857Z,974.55
2017-12-05T10:08:57.837Z,974.58
2017-12-05T10:10:07.820Z,974.56
2017-12-05T10:11:17.806Z,974.61
2017-12-05T10:12:27.793Z,974.61
2017-12-05T10:13:37.773Z,974.62
2017-12-05T10:14:47.497Z,974.62
2017-12-05T10:15:57.478Z,974.62
2017-12-05T10:17:07.515Z,974.64
2017-12-05T10:18:17.246Z,974.6
2017-12-05T10:19:26.958Z,974.56
2017-12-05T10:20:37.263Z,974.59
2017-12-05T10:21:46.985Z,974.61
2017-12-05T10:22:56.970Z,974.58
2017-12-05T10:24:06.685Z,974.6
2017-12-05T10:25:16.674Z,974.62
2017-12-05T10:26:26.389Z,974.66
2017-12-05T10:27:36.386Z,974.7
2017-12-05T10:28:45.844Z,974.75
2017-12-05T10:29:55.828Z,974.74
2017-12-05T10:31:05.541Z,974.78
2017-12-05T10:32:15.526Z,974.76
2017-12-05T10:33:24.983Z,974.82
2017-12-05T10:34:34.702Z,974.8
2017-12-05T10:35:44.693Z,974.8
2017-12-05T10:36:54.672Z,974.74
2017-12-05T10:38:04.389Z,974.73
2017-12-05T10:39:14.380Z,974.75
2017-12-05T10:40:23.836Z,974.74
2017-12-05T10:41:33.817Z,974.73
2017-12-05T10:42:43.796Z,974.63
2017-12-05T10:43:53.778Z,974.64
2017-12-05T10:45:03.763Z,974.65
2017-12-05T10:46:13.474Z,974.64
2017-12-05T10:47:23.458Z,974.64
2017-12-05T10:48:33.439Z,974.66
2017-12-05T10:49:43.153Z,974.69
2017-12-05T10:50:52.869Z,974.68
2017-12-05T10:52:02.861Z,974.66
2017-12-05T10:53:12.579Z,974.73
2017-12-05T10:54:22.610Z,974.74
2017-12-05T10:55:32.593Z,974.79
2017-12-05T10:56:42.570Z,974.78
2017-12-05T10:57:52.282Z,974.78
2017-12-05T10:59:01.998Z,974.79
2017-12-05T11:00:11.478Z,974.79
2017-12-05T11:01:21.240Z,974.74
2017-12-05T11:02:31.220Z,974.69
2017-12-05T11:03:40.931Z,974.81
2017-12-05T11:04:50.910Z,974.8
2017-12-05T11:06:00.892Z,974.87
2017-12-05T11:07:10.875Z,974.95
2017-12-05T11:08:20.859Z,974.9
2017-12-05T11:09:30.579Z,975.04
2017-12-05T11:10:40.298Z,975.05
2017-12-05T11:11:50.285Z,975.18
2017-12-05T11:13:00.282Z,975.13
2017-12-05T11:14:09.994Z,975.28
2017-12-05T11:15:19.987Z,975.28
2017-12-05T11:16:30.012Z,975.27
2017-12-05T11:17:39.997Z,975.37
2017-12-05T11:18:49.982Z,975.35
2017-12-05T11:20:01.975Z,975.39
2017-12-05T11:21:11.162Z,975.47
2017-12-05T11:22:20.874Z,975.45
2017-12-05T11:23:30.872Z,975.5
2017-12-05T11:24:40.585Z,975.57
2017-12-05T11:25:50.033Z,975.61
2017-12-05T11:26:59.753Z,975.68
2017-12-05T11:28:09.731Z,975.73
2017-12-05T11:29:19.179Z,975.71
2017-12-05T11:30:29.155Z,975.79
2017-12-05T11:31:39.134Z,975.83
2017-12-05T11:32:48.842Z,975.92
2017-12-05T11:33:58.291Z,975.94
2017-12-05T11:35:08.007Z,975.88
2017-12-05T11:36:17.720Z,975.9
2017-12-05T11:37:27.695Z,975.92
2017-12-05T11:38:37.689Z,975.94
2017-12-05T11:39:47.686Z,975.98
2017-12-05T11:40:57.671Z,976.01
2017-12-05T11:42:07.653Z,976.08
2017-12-05T11:43:17.366Z,976.09
2017-12-05T11:44:27.352Z,976.12
2017-12-05T11:45:36.816Z,976.09
2017-12-05T11:46:46.795Z,976.17
2017-12-05T11:47:56.518Z,976.19
2017-12-05T11:49:06.520Z,976.15
2017-12-05T11:50:16.503Z,976.17
2017-12-05T11:51:25.958Z,976.21
2017-12-05T11:52:35.686Z,976.29
2017-12-05T11:53:45.136Z,976.31
2017-12-05T11:54:55.122Z,976.37
2017-12-05T11:56:05.115Z,976.39
2017-12-05T11:57:14.831Z,976.41
2017-12-05T11:58:24.815Z,976.46
2017-12-05T11:59:34.530Z,976.45
2017-12-05T12:00:44.568Z,976.4
2017-12-05T12:01:54.553Z,976.38
2017-12-05T12:03:04.542Z,976.43
2017-12-05T12:04:14.527Z,976.46
2017-12-05T12:05:24.510Z,976.4
2017-12-05T12:06:34.530Z,976.33
2017-12-05T12:07:44.510Z,976.3
2017-12-05T12:08:54.500Z,976.31
2017-12-05T12:10:04.219Z,976.28
2017-12-05T12:11:14.200Z,976.3
2017-12-05T12:12:23.920Z,976.27
2017-12-05T12:13:33.907Z,976.28
2017-12-05T12:14:43.888Z,976.28
2017-12-05T12:15:53.877Z,976.34
2017-12-05T12:17:03.860Z,976.3
2017-12-05T12:18:13.586Z,976.37
2017-12-05T12:19:23.578Z,976.32
2017-12-05T12:20:33.293Z,976.41
2017-12-05T12:21:43.277Z,976.5
2017-12-05T12:22:53.264Z,976.45
2017-12-05T12:24:03.246Z,976.41
2017-12-05T12:25:13.228Z,976.44
2017-12-05T12:26:23.206Z,976.45
2017-12-05T12:27:32.657Z,976.48
2017-12-05T12:28:42.646Z,976.45
2017-12-05T12:29:52.677Z,976.43
2017-12-05T12:31:02.127Z,976.41
2017-12-05T12:32:12.111Z,976.46
2017-12-05T12:33:22.091Z,976.42
2017-12-05T12:34:32.076Z,976.45
2017-12-05T12:35:42.103Z,976.46
2017-12-05T12:36:52.098Z,976.48
2017-12-05T12:38:02.085Z,976.52
2017-12-05T12:39:12.075Z,976.55
2017-12-05T12:40:22.073Z,976.57
2017-12-05T12:41:34.063Z,976.59
2017-12-05T12:42:44.048Z,976.64
2017-12-05T12:43:54.028Z,976.66
2017-12-05T12:45:03.746Z,976.64
2017-12-05T12:46:13.724Z,976.61
2017-12-05T12:47:24.360Z,976.62
2017-12-05T12:48:34.085Z,976.6
2017-12-05T12:49:44.071Z,976.61
2017-12-05T12:50:53.785Z,976.68
2017-12-05T12:52:03.766Z,976.61
2017-12-05T12:53:13.787Z,976.62
2017-12-05T12:54:23.769Z,976.64
2017-12-05T12:55:33.746Z,976.64
2017-12-05T12:56:43.730Z,976.62
2017-12-05T12:57:53.716Z,976.64
2017-12-05T12:59:03.700Z,976.64
2017-12-05T13:00:13.418Z,976.65
2017-12-05T13:01:23.131Z,976.64
2017-12-05T13:02:32.582Z,976.67
2017-12-05T13:03:42.305Z,976.63
2017-12-05T13:04:52.298Z,976.67
2017-12-05T13:06:01.478Z,976.69
2017-12-05T13:07:11.459Z,976.71
2017-12-05T13:08:20.905Z,976.72
2017-12-05T13:09:30.359Z,976.68
2017-12-05T13:10:40.076Z,976.71
2017-12-05T13:11:50.055Z,976.67
2017-12-05T13:12:59.766Z,976.68
2017-12-05T13:14:09.219Z,976.7
2017-12-05T13:15:18.937Z,976.68
2017-12-05T13:16:28.918Z,976.65
2017-12-05T13:17:38.639Z,976.68
2017-12-05T13:18:48.617Z,976.63
2017-12-05T13:19:58.600Z,976.63
2017-12-05T13:21:08.317Z,976.65
2017-12-05T13:22:18.300Z,976.63
2017-12-05T13:23:27.749Z,976.73
2017-12-05T13:24:37.731Z,976.69
2017-12-05T13:25:47.713Z,976.71
2017-12-05T13:26:57.700Z,976.74
2017-12-05T13:28:07.684Z,976.77
2017-12-05T13:29:17.664Z,976.79
2017-12-05T13:30:27.379Z,976.72
2017-12-05T13:31:36.841Z,976.78
2017-12-05T13:32:46.822Z,976.8
2017-12-05T13:33:56.807Z,976.86
2017-12-05T13:35:06.805Z,976.9
2017-12-05T13:36:16.788Z,976.92
2017-12-05T13:37:26.770Z,976.98
2017-12-05T13:38:36.486Z,977
2017-12-05T13:39:46.480Z,977.02
2017-12-05T13:40:56.458Z,977.01
2017-12-05T13:42:06.444Z,976.95
2017-12-05T13:43:16.454Z,976.96
2017-12-05T13:44:25.910Z,976.98
2017-12-05T13:45:35.897Z,976.96
2017-12-05T13:46:45.610Z,976.99
2017-12-05T13:47:55.597Z,976.96
2017-12-05T13:49:05.312Z,977.03
2017-12-05T13:50:15.033Z,977.01
2017-12-05T13:51:24.747Z,977.05
2017-12-05T13:52:34.246Z,977.04
2017-12-05T13:53:43.964Z,977.02
2017-12-05T13:54:53.687Z,977.05
2017-12-05T13:56:03.700Z,977.05
2017-12-05T13:57:13.153Z,977.02
2017-12-05T13:58:22.928Z,977.01
2017-12-05T13:59:32.649Z,977.02
2017-12-05T14:00:42.379Z,977.05
2017-12-05T14:01:52.359Z,977.08
2017-12-05T14:03:02.076Z,977.11
2017-12-05T14:04:11.801Z,977.11
2017-12-05T14:05:21.803Z,977.15
2017-12-05T14:06:31.790Z,977.24
2017-12-05T14:07:41.515Z,977.21
2017-12-05T14:08:51.501Z,977.25
2017-12-05T14:10:01.488Z,977.26
2017-12-05T14:11:11.213Z,977.25
2017-12-05T14:12:21.197Z,977.3
2017-12-05T14:13:30.914Z,977.32
2017-12-05T14:14:40.638Z,977.3
2017-12-05T14:15:50.628Z,977.32
2017-12-05T14:17:00.344Z,977.34
2017-12-05T14:18:10.062Z,977.38
2017-12-05T14:19:20.044Z,977.36
2017-12-05T14:20:29.548Z,977.43
2017-12-05T14:21:39.021Z,977.43
2017-12-05T14:22:48.479Z,977.42
2017-12-05T14:23:58.469Z,977.36
2017-12-05T14:25:08.187Z,977.34
2017-12-05T14:26:18.173Z,977.34
2017-12-05T14:27:28.155Z,977.34
2017-12-05T14:28:38.140Z,977.35
2017-12-05T14:29:48.132Z,977.38
2017-12-05T14:30:58.123Z,977.4
2017-12-05T14:32:08.109Z,977.41
2017-12-05T14:33:17.833Z,977.38
2017-12-05T14:34:27.836Z,977.37
2017-12-05T14:35:37.829Z,977.33
2017-12-05T14:36:47.552Z,977.36
2017-12-05T14:37:57.533Z,977.36